createdAt,value
2023-03-24T09:42:54.510Z,4.20
2023-03-24T09:46:00.576Z,4.40
2023-03-24T09:49:05.184Z,4.50
2023-03-24T09:52:12.679Z,4.70
2023-03-24T09:55:25.326Z,4.80
2023-03-24T09:58:31.433Z,8.30
2023-03-24T10:01:36.415Z,4.20
2023-03-24T10:04:39.651Z,4.00
2023-03-24T10:07:57.053Z,4.50
2023-03-24T10:11:54.343Z,4.50
2023-03-24T10:14:57.496Z,4.70
2023-03-24T10:18:11.085Z,4.50
2023-03-24T10:21:25.998Z,4.50
2023-03-24T10:25:08.280Z,4.80
2023-03-24T10:28:49.824Z,5.70
2023-03-24T10:32:24.731Z,5.40
2023-03-24T10:35:33.173Z,4.90
2023-03-24T10:38:37.010Z,5.20
2023-03-24T10:41:42.383Z,4.90
2023-03-24T10:44:48.915Z,5.30
2023-03-24T10:47:54.873Z,5.10
2023-03-24T10:50:59.026Z,5.10
2023-03-24T10:54:22.870Z,5.00
2023-03-24T10:57:27.530Z,4.70
2023-03-24T11:00:32.441Z,4.10
2023-03-24T11:03:38.113Z,5.10
2023-03-24T11:06:57.360Z,5.00
2023-03-24T11:10:27.404Z,5.50
2023-03-24T11:13:34.881Z,4.90
2023-03-24T11:16:43.676Z,5.30
2023-03-24T11:19:54.885Z,4.90
2023-03-24T11:23:07.129Z,4.80
2023-03-24T11:26:59.009Z,5.60
2023-03-24T11:30:02.336Z,6.10
2023-03-24T11:33:05.625Z,5.90
2023-03-24T11:36:30.537Z,6.40
2023-03-24T11:39:35.468Z,6.70
2023-03-24T11:42:46.043Z,6.70
2023-03-24T11:46:01.233Z,6.30
2023-03-24T11:49:06.841Z,6.30
2023-03-24T11:52:21.399Z,6.60
2023-03-24T11:56:12.093Z,6.40
2023-03-24T11:59:31.573Z,6.90
2023-03-24T12:03:07.386Z,7.00
2023-03-24T12:06:34.082Z,6.70
2023-03-24T12:09:57.474Z,5.70
2023-03-24T12:13:29.963Z,7.30
2023-03-24T12:16:53.873Z,7.50
2023-03-24T12:20:09.225Z,6.60
2023-03-24T12:23:20.559Z,7.20
2023-03-24T12:26:31.097Z,6.90
2023-03-24T12:30:30.843Z,7.20
2023-03-24T12:34:24.532Z,7.30
2023-03-24T12:38:05.959Z,7.90
2023-03-24T12:41:44.194Z,7.40
2023-03-24T12:45:10.456Z,8.10
2023-03-24T12:48:31.926Z,7.90
2023-03-24T12:51:57.617Z,7.80
2023-03-24T12:55:10.449Z,8.40
2023-03-24T12:58:43.892Z,7.40
2023-03-24T13:01:55.839Z,8.00
2023-03-24T13:05:07.178Z,6.90
2023-03-24T13:08:18.700Z,8.30
2023-03-24T13:11:33.784Z,7.50
2023-03-24T13:15:00.084Z,6.90
2023-03-24T13:18:09.544Z,8.00
2023-03-24T13:21:21.675Z,11.20
2023-03-24T13:24:26.308Z,7.90
2023-03-24T13:27:36.446Z,6.90
2023-03-24T13:30:42.214Z,7.40
2023-03-24T13:33:45.986Z,7.40
2023-03-24T13:36:53.014Z,8.20
2023-03-24T13:40:00.225Z,7.80
2023-03-24T13:43:18.762Z,8.40
2023-03-24T13:46:22.280Z,7.40
2023-03-24T13:49:26.321Z,7.80
2023-03-24T13:52:37.666Z,8.60
2023-03-24T13:55:49.567Z,7.30
2023-03-24T13:58:55.752Z,10.00
2023-03-24T14:02:17.681Z,8.40
2023-03-24T14:05:26.665Z,7.40
2023-03-24T14:08:55.923Z,7.90
2023-03-24T14:11:59.064Z,7.30
2023-03-24T14:15:41.250Z,7.60
2023-03-24T14:18:44.555Z,6.60
2023-03-24T14:22:10.640Z,7.10
2023-03-24T14:25:16.611Z,8.30
2023-03-24T14:28:31.907Z,7.60
2023-03-24T14:31:36.665Z,7.40
2023-03-24T14:34:51.237Z,7.50
2023-03-24T14:38:00.045Z,8.30
2023-03-24T14:41:13.002Z,7.80
2023-03-24T14:44:45.045Z,8.40
2023-03-24T14:47:48.782Z,8.30
2023-03-24T14:50:54.400Z,8.60
2023-03-24T14:53:58.476Z,8.50
2023-03-24T14:57:03.212Z,7.20
2023-03-24T15:00:15.902Z,6.50
2023-03-24T15:03:24.252Z,8.20
2023-03-24T15:06:27.706Z,7.20
2023-03-24T15:09:30.892Z,6.20
2023-03-24T15:12:34.266Z,5.40
2023-03-24T15:15:37.503Z,5.20
2023-03-24T15:22:05.976Z,8.70
2023-03-24T15:25:10.256Z,4.70
2023-03-24T15:28:28.997Z,4.90
2023-03-24T15:31:33.101Z,5.10
2023-03-24T15:34:41.069Z,4.90
2023-03-24T15:37:48.482Z,5.60
2023-03-24T15:40:57.867Z,5.60
2023-03-24T15:44:01.093Z,5.70
2023-03-24T15:47:06.354Z,6.20
2023-03-24T15:50:33.802Z,6.10
2023-03-24T15:53:49.515Z,5.50
2023-03-24T15:57:12.296Z,6.10
2023-03-24T16:00:24.757Z,7.20
2023-03-24T16:03:30.555Z,7.00
2023-03-24T16:06:36.184Z,7.20
2023-03-24T16:09:41.054Z,7.70
2023-03-24T16:12:44.222Z,7.40
2023-03-24T16:16:13.582Z,7.40
2023-03-24T16:19:16.815Z,8.00
2023-03-24T16:22:19.946Z,9.50
2023-03-24T16:25:23.452Z,8.70
2023-03-24T16:28:27.739Z,7.80
2023-03-24T16:31:33.633Z,7.50
2023-03-24T16:34:37.252Z,6.70
2023-03-24T16:37:42.117Z,7.00
2023-03-24T16:40:49.199Z,7.20
2023-03-24T16:43:55.550Z,7.90
2023-03-24T16:47:02.032Z,7.30
2023-03-24T16:50:26.108Z,7.30
2023-03-24T16:53:29.192Z,7.10
2023-03-24T16:56:32.385Z,7.40
2023-03-24T16:59:35.562Z,6.90
2023-03-24T17:02:39.938Z,7.20
2023-03-24T17:05:53.085Z,7.70
2023-03-24T17:08:56.765Z,7.10
2023-03-24T17:12:02.565Z,8.40
2023-03-24T17:15:07.820Z,7.80
2023-03-24T17:18:11.800Z,7.30
2023-03-24T17:21:18.662Z,8.00
2023-03-24T17:24:29.338Z,7.70
2023-03-24T17:27:33.499Z,7.60
2023-03-24T17:30:36.582Z,7.90
2023-03-24T17:33:41.115Z,10.00
2023-03-24T17:36:44.769Z,9.80
2023-03-24T17:39:48.939Z,9.80
2023-03-24T17:42:52.963Z,8.90
2023-03-24T17:46:01.300Z,10.00
2023-03-24T17:49:04.757Z,8.80
2023-03-24T17:52:07.843Z,10.20
2023-03-24T17:55:12.787Z,10.30
2023-03-24T17:58:17.743Z,10.00
2023-03-24T18:01:30.802Z,9.30
2023-03-24T18:04:36.367Z,9.00
2023-03-24T18:07:40.357Z,8.20
2023-03-24T18:10:43.845Z,9.10
2023-03-24T18:13:47.025Z,8.40
2023-03-24T18:16:50.380Z,7.80
2023-03-24T18:19:53.549Z,8.50
2023-03-24T18:22:56.683Z,9.50
2023-03-24T18:26:01.528Z,10.20
2023-03-24T18:29:05.850Z,9.80
2023-03-24T18:32:09.098Z,9.30
2023-03-24T18:35:16.356Z,9.20
2023-03-24T18:38:23.835Z,9.00
2023-03-24T18:41:29.905Z,9.30
2023-03-24T18:44:33.321Z,8.90
2023-03-24T18:47:36.710Z,8.20
2023-03-24T18:50:40.731Z,7.70
2023-03-24T18:53:44.092Z,7.10
2023-03-24T18:56:47.259Z,7.60
2023-03-24T18:59:50.758Z,8.70
2023-03-24T19:02:54.074Z,7.30
2023-03-24T19:06:00.929Z,8.00
2023-03-24T19:09:05.449Z,7.60
2023-03-24T19:12:09.216Z,7.90
2023-03-24T19:15:13.626Z,8.80
2023-03-24T19:18:16.893Z,8.60
2023-03-24T19:21:24.497Z,9.00
2023-03-24T19:24:28.135Z,8.70
2023-03-24T19:27:31.358Z,9.00
2023-03-24T19:30:34.451Z,8.90
2023-03-24T19:33:38.129Z,9.00
2023-03-24T19:36:41.738Z,8.70
2023-03-24T19:39:46.071Z,9.70
2023-03-24T19:42:49.170Z,9.40
2023-03-24T19:45:54.019Z,9.20
2023-03-24T19:48:57.127Z,15.80
2023-03-24T19:52:00.362Z,10.10
2023-03-24T19:55:06.577Z,9.80
2023-03-24T19:58:09.735Z,9.20
2023-03-24T20:01:13.129Z,9.30
2023-03-24T20:04:17.033Z,9.70
2023-03-24T20:07:20.351Z,9.10
2023-03-24T20:10:23.811Z,8.80
2023-03-24T20:13:27.691Z,7.80
2023-03-24T20:16:31.501Z,8.80
2023-03-24T20:19:34.608Z,8.10
2023-03-24T20:22:42.209Z,9.80
2023-03-24T20:25:45.323Z,8.60
2023-03-24T20:28:48.658Z,7.60
2023-03-24T20:31:52.403Z,8.20
2023-03-24T20:34:55.640Z,8.00
2023-03-24T20:37:58.760Z,7.60
2023-03-24T20:41:05.708Z,7.90
2023-03-24T20:44:09.166Z,7.30
2023-03-24T20:47:12.226Z,7.60
2023-03-24T20:50:15.390Z,8.20
2023-03-24T20:53:18.939Z,6.80
2023-03-24T20:56:22.453Z,7.60
2023-03-24T20:59:26.209Z,7.70
2023-03-24T21:02:31.786Z,7.00
2023-03-24T21:05:35.259Z,6.90
2023-03-24T21:08:38.356Z,7.00
2023-03-24T21:11:41.523Z,7.90
2023-03-24T21:14:46.817Z,8.30
2023-03-24T21:17:50.287Z,7.10
2023-03-24T21:20:56.366Z,6.30
2023-03-24T21:24:00.842Z,6.50
2023-03-24T21:27:04.056Z,5.90
2023-03-24T21:30:08.237Z,5.50
2023-03-24T21:33:11.829Z,6.10
2023-03-24T21:36:15.685Z,6.40
2023-03-24T21:39:18.798Z,6.40
2023-03-24T21:42:22.864Z,6.30
2023-03-24T21:45:27.670Z,6.10
2023-03-24T21:48:32.939Z,6.20
2023-03-24T21:51:36.946Z,6.00
2023-03-24T21:54:40.205Z,5.50
2023-03-24T21:57:48.186Z,6.00
2023-03-24T22:00:52.058Z,5.60
2023-03-24T22:03:55.976Z,6.10
2023-03-24T22:06:59.203Z,6.20
2023-03-24T22:10:03.330Z,6.40
2023-03-24T22:13:06.371Z,6.00
2023-03-24T22:16:10.033Z,5.80
2023-03-24T22:19:13.178Z,5.80
2023-03-24T22:22:16.330Z,5.80
2023-03-24T22:25:20.014Z,5.70
2023-03-24T22:28:23.091Z,5.70
2023-03-24T22:31:26.396Z,5.70
2023-03-24T22:34:29.528Z,5.40
2023-03-24T22:37:33.490Z,6.00
2023-03-24T22:40:37.846Z,5.50
2023-03-24T22:43:41.884Z,6.00
2023-03-24T22:46:45.343Z,6.30
2023-03-24T22:49:48.440Z,6.20
2023-03-24T22:52:51.787Z,5.80
2023-03-24T22:55:54.956Z,5.70
2023-03-24T22:58:58.104Z,6.80
2023-03-24T23:02:09.232Z,6.70
2023-03-24T23:05:13.500Z,6.30
2023-03-24T23:08:16.698Z,6.50
2023-03-24T23:11:19.901Z,6.60
2023-03-24T23:14:25.530Z,6.60
2023-03-24T23:17:28.728Z,6.60
2023-03-24T23:20:31.895Z,6.20
2023-03-24T23:23:36.375Z,5.80
2023-03-24T23:26:39.492Z,5.40
2023-03-24T23:29:42.597Z,6.00
2023-03-24T23:32:47.064Z,6.90
2023-03-24T23:35:56.202Z,6.80
2023-03-24T23:38:59.353Z,5.90
2023-03-24T23:42:03.371Z,7.50
2023-03-24T23:45:07.648Z,7.80
2023-03-24T23:48:10.967Z,7.90
2023-03-24T23:51:14.372Z,6.50
2023-03-24T23:54:17.535Z,6.90
2023-03-24T23:57:20.683Z,6.60
